Time;durP1;ratioP1;P1;durP2;ratioP2;P2;SDS_P1;SDS_P2;PMS_P1;PMS_P2;Temp;Humidity;BMP_temperature;BMP_pressure;BME280_temperature;BME280_humidity;BME280_pressure;Samples;Min_cycle;Max_cycle;Signal;HPM_P1;HPM_P2
2023/12/22 00:02:04;;;;;;;1.60;1.20;;;5.60;98.20;;;;;;4978160;28;20491;-82
2023/12/22 00:04:32;;;;;;;1.63;1.30;;;5.60;98.20;;;;;;4979909;28;20576;-82
2023/12/22 00:06:59;;;;;;;1.70;1.30;;;5.60;98.20;;;;;;4963657;28;21091;-81
2023/12/22 00:09:26;;;;;;;1.67;1.30;;;5.60;98.20;;;;;;4977782;28;20572;-81
2023/12/22 00:11:53;;;;;;;1.60;1.30;;;5.60;98.20;;;;;;4974523;28;20572;-81
2023/12/22 00:14:20;;;;;;;1.67;1.30;;;5.60;98.20;;;;;;4985867;28;20461;-82
2023/12/22 00:16:46;;;;;;;1.60;1.30;;;5.60;98.20;;;;;;4969355;28;20486;-81
2023/12/22 00:19:13;;;;;;;1.63;1.30;;;5.60;98.20;;;;;;4980490;28;20470;-81
2023/12/22 00:21:41;;;;;;;1.67;1.30;;;5.60;98.20;;;;;;4971763;28;20516;-80
2023/12/22 00:24:08;;;;;;;1.63;1.30;;;5.60;98.20;;;;;;4980574;28;20525;-82
2023/12/22 00:26:35;;;;;;;1.67;1.30;;;5.60;98.20;;;;;;4969623;28;20497;-82
2023/12/22 00:29:02;;;;;;;1.60;1.30;;;5.60;98.20;;;;;;4975604;28;20485;-84
2023/12/22 00:31:29;;;;;;;1.70;1.30;;;5.60;98.20;;;;;;4961891;28;20862;-83
2023/12/22 00:33:56;;;;;;;1.67;1.30;;;5.70;98.20;;;;;;4974898;28;20509;-82
2023/12/22 00:36:24;;;;;;;1.70;1.30;;;5.70;98.20;;;;;;4970741;28;20568;-82
2023/12/22 00:38:52;;;;;;;1.60;1.27;;;5.80;98.20;;;;;;4976746;28;20477;-82
2023/12/22 00:41:19;;;;;;;1.60;1.30;;;5.80;98.20;;;;;;4968100;28;20481;-82
2023/12/22 00:43:46;;;;;;;1.70;1.40;;;5.80;98.20;;;;;;4981515;28;20461;-82
2023/12/22 00:46:14;;;;;;;1.63;1.30;;;5.90;98.20;;;;;;4973994;28;20502;-82
2023/12/22 00:48:41;;;;;;;1.67;1.30;;;5.90;98.20;;;;;;4974160;28;21005;-82
2023/12/22 00:51:08;;;;;;;1.60;1.30;;;6.00;98.20;;;;;;4973308;28;20550;-81
2023/12/22 00:53:35;;;;;;;1.60;1.30;;;6.00;98.20;;;;;;4976511;28;20473;-81
2023/12/22 00:56:03;;;;;;;1.60;1.30;;;6.10;98.20;;;;;;4967819;28;21175;-81
2023/12/22 00:58:30;;;;;;;1.60;1.30;;;6.10;98.20;;;;;;4980651;28;20486;-81
2023/12/22 01:00:57;;;;;;;1.67;1.30;;;6.20;98.20;;;;;;4969039;28;20808;-81
2023/12/22 01:03:24;;;;;;;1.60;1.30;;;6.20;98.20;;;;;;4975003;28;20969;-82
2023/12/22 01:05:51;;;;;;;1.60;1.20;;;6.20;98.20;;;;;;4966507;28;20491;-82
2023/12/22 01:08:18;;;;;;;1.60;1.27;;;6.20;98.20;;;;;;4974297;28;20778;-83
2023/12/22 01:10:45;;;;;;;1.67;1.30;;;6.20;98.20;;;;;;4974527;28;20504;-82
2023/12/22 01:13:13;;;;;;;1.70;1.30;;;6.20;98.20;;;;;;4950352;28;20478;-82
2023/12/22 01:15:40;;;;;;;1.60;1.20;;;6.20;98.20;;;;;;4974336;28;20457;-81
2023/12/22 01:18:06;;;;;;;1.60;1.20;;;6.10;98.20;;;;;;4968378;28;20489;-81
2023/12/22 01:20:33;;;;;;;1.60;1.30;;;6.10;98.20;;;;;;4972891;28;20565;-81
2023/12/22 01:23:00;;;;;;;1.60;1.30;;;6.10;98.20;;;;;;4969709;28;20494;-82
2023/12/22 01:25:27;;;;;;;1.63;1.30;;;6.00;98.20;;;;;;4979107;28;20485;-81
2023/12/22 01:27:54;;;;;;;1.60;1.30;;;6.00;98.20;;;;;;4969424;28;20483;-81
2023/12/22 01:30:22;;;;;;;1.60;1.30;;;6.00;98.20;;;;;;4973765;28;20462;-81
2023/12/22 01:32:48;;;;;;;1.70;1.30;;;6.00;98.20;;;;;;4969046;28;20545;-82
2023/12/22 01:35:15;;;;;;;1.60;1.30;;;6.00;98.20;;;;;;4976038;28;20462;-84
2023/12/22 01:37:42;;;;;;;1.60;1.30;;;6.00;98.20;;;;;;4967136;28;20997;-82
2023/12/22 01:40:10;;;;;;;1.60;1.30;;;6.10;98.20;;;;;;4978441;28;20468;-82
2023/12/22 01:42:36;;;;;;;1.60;1.30;;;6.10;98.20;;;;;;4977470;28;20498;-83
2023/12/22 01:45:03;;;;;;;1.60;1.30;;;6.10;98.20;;;;;;4983312;28;20521;-82
2023/12/22 01:47:31;;;;;;;1.70;1.40;;;6.10;98.20;;;;;;4975628;28;20482;-81
2023/12/22 01:50:02;;;;;;;1.67;1.37;;;6.10;98.20;;;;;;4983222;28;20479;-81
2023/12/22 01:52:29;;;;;;;1.60;1.30;;;6.10;98.20;;;;;;4973092;28;20555;-81
2023/12/22 01:54:56;;;;;;;1.70;1.30;;;6.10;98.20;;;;;;4981259;28;20463;-81
2023/12/22 01:57:23;;;;;;;1.60;1.30;;;6.10;98.20;;;;;;4972702;28;20517;-81
2023/12/22 01:59:50;;;;;;;1.60;1.30;;;6.10;98.20;;;;;;4979293;28;20581;-81
2023/12/22 02:02:17;;;;;;;1.63;1.23;;;6.10;98.20;;;;;;4972928;28;20492;-81
2023/12/22 02:04:46;;;;;;;1.60;1.20;;;6.00;98.20;;;;;;4979922;28;20548;-81
2023/12/22 02:07:13;;;;;;;1.60;1.30;;;6.00;98.20;;;;;;4972035;28;20482;-81
2023/12/22 02:09:40;;;;;;;1.67;1.40;;;6.00;98.20;;;;;;4974800;28;20497;-81
2023/12/22 02:12:07;;;;;;;1.60;1.30;;;6.00;98.20;;;;;;4973111;28;20485;-81
2023/12/22 02:14:34;;;;;;;1.63;1.30;;;5.90;98.20;;;;;;4976534;28;20497;-81
2023/12/22 02:17:11;;;;;;;1.67;1.30;;;5.90;98.20;;;;;;4970931;28;20481;-81
2023/12/22 02:19:43;;;;;;;1.60;1.30;;;6.00;98.20;;;;;;4978849;28;20481;-81
2023/12/22 02:22:13;;;;;;;1.67;1.40;;;5.90;98.20;;;;;;4965346;28;20640;-81
2023/12/22 02:24:42;;;;;;;1.63;1.30;;;6.00;98.20;;;;;;4979378;28;20962;-81
2023/12/22 02:27:22;;;;;;;1.60;1.30;;;6.00;98.20;;;;;;4969667;28;20481;-81
2023/12/22 02:29:53;;;;;;;1.63;1.30;;;6.00;98.20;;;;;;4979873;28;20491;-81
2023/12/22 02:32:25;;;;;;;1.60;1.30;;;6.00;98.20;;;;;;4969298;28;20633;-82
2023/12/22 02:34:54;;;;;;;1.60;1.30;;;6.00;98.20;;;;;;4975283;28;20554;-81
2023/12/22 02:37:22;;;;;;;1.63;1.30;;;6.00;98.20;;;;;;4966670;28;20529;-83
2023/12/22 02:39:51;;;;;;;1.60;1.30;;;6.10;98.20;;;;;;4979892;28;20485;-82
2023/12/22 02:42:19;;;;;;;1.63;1.30;;;6.00;98.20;;;;;;4971412;28;20482;-82
2023/12/22 02:44:46;;;;;;;1.70;1.40;;;6.10;98.20;;;;;;4977344;28;20458;-81
2023/12/22 02:47:13;;;;;;;1.60;1.20;;;6.00;98.20;;;;;;4977045;28;20489;-81
2023/12/22 02:49:40;;;;;;;1.60;1.20;;;6.10;98.20;;;;;;4981987;28;20492;-82
2023/12/22 02:52:07;;;;;;;1.63;1.33;;;6.10;98.20;;;;;;4973307;28;20919;-82
2023/12/22 02:54:34;;;;;;;1.70;1.30;;;6.10;98.20;;;;;;4981596;28;20607;-82
2023/12/22 02:57:02;;;;;;;1.70;1.40;;;6.10;98.20;;;;;;4976184;28;20487;-82
2023/12/22 02:59:29;;;;;;;1.67;1.30;;;6.10;98.20;;;;;;4978320;28;21044;-82
2023/12/22 03:01:56;;;;;;;1.70;1.40;;;6.10;98.20;;;;;;4977040;28;20543;-81
2023/12/22 03:04:23;;;;;;;1.70;1.40;;;6.10;98.20;;;;;;4980411;28;20589;-82
2023/12/22 03:06:49;;;;;;;1.60;1.30;;;6.10;98.20;;;;;;4977801;28;20481;-81
2023/12/22 03:09:16;;;;;;;1.70;1.40;;;6.00;98.20;;;;;;4979473;28;20490;-81
2023/12/22 03:11:43;;;;;;;1.60;1.30;;;6.00;98.20;;;;;;4972527;28;20587;-81
2023/12/22 03:14:11;;;;;;;1.67;1.30;;;6.00;98.20;;;;;;4980351;28;20497;-81
2023/12/22 03:16:38;;;;;;;1.63;1.30;;;6.00;98.20;;;;;;4967059;28;20512;-82
2023/12/22 03:19:05;;;;;;;1.60;1.30;;;6.00;98.20;;;;;;4975681;28;20525;-81
2023/12/22 03:21:32;;;;;;;1.60;1.30;;;5.90;98.20;;;;;;4966441;28;20494;-82
2023/12/22 03:23:59;;;;;;;1.70;1.40;;;5.90;98.20;;;;;;4978863;28;20460;-82
2023/12/22 03:26:28;;;;;;;1.60;1.30;;;5.80;98.20;;;;;;4972505;28;20572;-82
2023/12/22 03:28:55;;;;;;;1.60;1.20;;;5.80;98.20;;;;;;4980766;28;20495;-81
2023/12/22 03:31:23;;;;;;;1.60;1.30;;;5.80;98.20;;;;;;4969064;28;20988;-82
2023/12/22 03:33:50;;;;;;;1.60;1.30;;;5.80;98.20;;;;;;4979005;28;20458;-81
2023/12/22 03:36:17;;;;;;;1.63;1.30;;;5.80;98.20;;;;;;4971415;28;20545;-81
2023/12/22 03:38:44;;;;;;;1.67;1.30;;;5.80;98.20;;;;;;4978122;28;20501;-81
2023/12/22 03:41:11;;;;;;;1.60;1.30;;;5.80;98.20;;;;;;4970631;28;20515;-80
2023/12/22 03:43:37;;;;;;;1.67;1.20;;;5.80;98.20;;;;;;4978907;28;20462;-80
2023/12/22 03:46:04;;;;;;;1.63;1.30;;;5.80;98.20;;;;;;4976731;28;20461;-80
2023/12/22 03:48:33;;;;;;;1.67;1.30;;;5.80;98.20;;;;;;4982118;28;20489;-80
2023/12/22 03:51:00;;;;;;;1.60;1.20;;;5.80;98.20;;;;;;4977600;28;20580;-80
2023/12/22 03:53:26;;;;;;;1.70;1.30;;;5.80;98.20;;;;;;4984819;28;20485;-80
2023/12/22 03:55:53;;;;;;;1.70;1.30;;;5.80;98.20;;;;;;4975158;28;20611;-81
2023/12/22 03:58:20;;;;;;;1.60;1.30;;;5.90;98.20;;;;;;4981978;28;20531;-80
2023/12/22 04:00:47;;;;;;;1.70;1.30;;;5.90;98.20;;;;;;4985570;28;20458;-81
2023/12/22 04:03:14;;;;;;;1.60;1.30;;;6.00;98.20;;;;;;4983835;28;20532;-81
2023/12/22 04:05:42;;;;;;;1.67;1.20;;;6.00;98.20;;;;;;4982639;28;20469;-81
2023/12/22 04:08:09;;;;;;;1.70;1.30;;;6.10;98.20;;;;;;4976334;28;20481;-81
2023/12/22 04:10:36;;;;;;;1.60;1.30;;;6.10;98.20;;;;;;4983752;28;20466;-81
2023/12/22 04:13:03;;;;;;;1.67;1.30;;;6.20;98.20;;;;;;4976964;28;20552;-81
2023/12/22 04:15:30;;;;;;;1.60;1.30;;;6.30;98.20;;;;;;4986824;28;20458;-80
2023/12/22 04:17:57;;;;;;;1.70;1.30;;;6.30;98.20;;;;;;4971283;28;20882;-80
2023/12/22 04:20:24;;;;;;;1.70;1.37;;;6.30;98.20;;;;;;4988215;28;20466;-81
2023/12/22 04:22:52;;;;;;;1.70;1.40;;;6.40;98.20;;;;;;4975699;28;20482;-81
2023/12/22 04:25:19;;;;;;;1.60;1.30;;;6.40;98.20;;;;;;4983571;28;20465;-81
2023/12/22 04:27:46;;;;;;;1.60;1.30;;;6.40;98.20;;;;;;4972535;28;20482;-80
2023/12/22 04:30:13;;;;;;;1.60;1.30;;;6.40;98.20;;;;;;4987446;28;20524;-80
2023/12/22 04:32:40;;;;;;;1.60;1.20;;;6.50;98.20;;;;;;4972619;28;20568;-80
2023/12/22 04:35:08;;;;;;;1.70;1.40;;;6.40;98.20;;;;;;4986242;28;20464;-80
2023/12/22 04:37:34;;;;;;;1.67;1.30;;;6.50;98.20;;;;;;4978246;28;20488;-82
2023/12/22 04:40:06;;;;;;;1.70;1.20;;;6.50;98.20;;;;;;4981399;28;20485;-85
2023/12/22 04:42:33;;;;;;;1.60;1.30;;;6.50;98.20;;;;;;4970746;28;20568;-84
2023/12/22 04:45:00;;;;;;;1.70;1.30;;;6.60;98.20;;;;;;4984522;28;20469;-83
2023/12/22 04:47:27;;;;;;;1.67;1.30;;;6.60;98.20;;;;;;4969731;28;20500;-83
2023/12/22 04:49:54;;;;;;;1.60;1.20;;;6.60;98.20;;;;;;4990632;28;20480;-81
2023/12/22 04:52:24;;;;;;;1.60;1.30;;;6.70;98.20;;;;;;4976390;28;20486;-82
2023/12/22 04:54:51;;;;;;;1.70;1.30;;;6.70;98.20;;;;;;4990429;28;20453;-82
2023/12/22 05:00:17;;;;;;;1.60;1.30;;;6.70;98.20;;;;;;5237127;23;20499;-80
2023/12/22 05:02:44;;;;;;;1.70;1.33;;;6.70;98.20;;;;;;4972656;28;20505;-79
2023/12/22 05:05:12;;;;;;;1.60;1.20;;;6.70;98.20;;;;;;4986954;28;20548;-82
2023/12/22 05:07:40;;;;;;;1.70;1.30;;;6.70;98.20;;;;;;4968257;28;20486;-81
2023/12/22 05:10:10;;;;;;;1.60;1.20;;;6.80;98.20;;;;;;4992578;28;20560;-82
2023/12/22 05:12:37;;;;;;;1.60;1.20;;;6.80;98.20;;;;;;4974673;28;20478;-82
2023/12/22 05:15:05;;;;;;;1.67;1.30;;;6.90;98.20;;;;;;4991258;28;20490;-82
2023/12/22 05:17:34;;;;;;;1.67;1.30;;;6.90;98.20;;;;;;4974968;28;20509;-81
2023/12/22 05:20:01;;;;;;;1.60;1.30;;;7.00;98.20;;;;;;4987093;28;20504;-81
2023/12/22 05:22:29;;;;;;;1.60;1.20;;;7.00;98.20;;;;;;4976686;28;20537;-81
2023/12/22 05:25:01;;;;;;;1.63;1.20;;;7.10;98.20;;;;;;4988107;28;20740;-80
2023/12/22 05:27:28;;;;;;;1.60;1.23;;;7.10;98.20;;;;;;4974586;28;20496;-82
2023/12/22 05:29:55;;;;;;;1.70;1.30;;;7.10;98.20;;;;;;4990425;28;20862;-82
2023/12/22 05:32:25;;;;;;;1.67;1.30;;;7.10;98.20;;;;;;4977156;28;20555;-82
2023/12/22 05:34:56;;;;;;;1.60;1.30;;;7.20;98.20;;;;;;4990559;28;20528;-82
2023/12/22 05:37:23;;;;;;;1.63;1.30;;;7.20;98.20;;;;;;4974803;28;20485;-82
2023/12/22 05:39:51;;;;;;;1.60;1.20;;;7.30;98.20;;;;;;4995757;28;20508;-80
2023/12/22 05:42:18;;;;;;;1.60;1.20;;;7.30;98.20;;;;;;4981081;28;20487;-82
2023/12/22 05:44:49;;;;;;;1.60;1.20;;;7.40;98.20;;;;;;4991072;28;20468;-82
2023/12/22 05:47:16;;;;;;;1.67;1.27;;;7.40;98.20;;;;;;4979143;28;20946;-81
2023/12/22 05:49:43;;;;;;;1.70;1.30;;;7.40;98.20;;;;;;4990464;28;20495;-81
2023/12/22 05:52:12;;;;;;;1.60;1.20;;;7.50;98.20;;;;;;4979014;28;20568;-82
2023/12/22 05:54:39;;;;;;;1.60;1.20;;;7.50;98.20;;;;;;4991539;28;20561;-83
2023/12/22 05:57:07;;;;;;;1.70;1.33;;;7.50;98.20;;;;;;4978356;28;20500;-82
2023/12/22 05:59:39;;;;;;;1.60;1.30;;;7.60;98.20;;;;;;4982529;28;20999;-82
2023/12/22 06:05:25;;;;;;;1.60;1.20;;;7.60;98.20;;;;;;4993050;28;20582;-80
2023/12/22 06:07:53;;;;;;;1.67;1.20;;;7.60;98.20;;;;;;4981731;28;20492;-80
2023/12/22 06:10:20;;;;;;;1.60;1.20;;;7.70;98.20;;;;;;4994273;28;20477;-80
2023/12/22 06:12:49;;;;;;;1.60;1.30;;;7.70;98.20;;;;;;4985144;28;20604;-81
2023/12/22 06:15:16;;;;;;;1.67;1.30;;;7.70;98.20;;;;;;4990769;28;20504;-81
2023/12/22 06:17:43;;;;;;;1.67;1.27;;;7.70;98.20;;;;;;4979116;28;20485;-80
2023/12/22 06:20:13;;;;;;;1.60;1.30;;;7.70;98.20;;;;;;4995216;28;20481;-81
2023/12/22 06:22:41;;;;;;;1.60;1.20;;;7.70;98.20;;;;;;4981809;28;20883;-81
2023/12/22 06:25:09;;;;;;;1.70;1.30;;;7.70;98.20;;;;;;4993239;28;20473;-80
2023/12/22 06:27:37;;;;;;;1.63;1.30;;;7.70;98.20;;;;;;4981923;28;20509;-81
2023/12/22 06:30:06;;;;;;;1.60;1.20;;;7.70;98.20;;;;;;4989803;28;21043;-80
2023/12/22 06:32:39;;;;;;;1.60;1.20;;;7.70;98.20;;;;;;4977861;28;21085;-80
2023/12/22 06:35:07;;;;;;;1.67;1.40;;;7.70;98.20;;;;;;4990344;28;21044;-80
2023/12/22 06:37:34;;;;;;;1.67;1.30;;;7.70;98.20;;;;;;4968394;28;20485;-80
2023/12/22 06:40:01;;;;;;;1.60;1.20;;;7.70;98.20;;;;;;4991131;28;20949;-80
2023/12/22 06:42:31;;;;;;;1.60;1.30;;;7.70;98.20;;;;;;4978982;28;20596;-81
2023/12/22 06:44:58;;;;;;;1.63;1.20;;;7.70;98.20;;;;;;4989344;28;20971;-80
2023/12/22 06:47:26;;;;;;;1.60;1.20;;;7.80;98.20;;;;;;4979470;28;20485;-81
2023/12/22 06:49:53;;;;;;;1.60;1.20;;;7.80;98.20;;;;;;4988807;28;20542;-81
2023/12/22 06:52:20;;;;;;;1.63;1.20;;;7.80;98.20;;;;;;4980755;28;20887;-80
2023/12/22 06:54:47;;;;;;;1.63;1.20;;;7.80;98.20;;;;;;4987474;28;20469;-80
2023/12/22 06:57:14;;;;;;;1.80;1.30;;;7.80;98.20;;;;;;4968667;28;20478;-81
2023/12/22 06:59:42;;;;;;;1.67;1.30;;;7.80;98.20;;;;;;4988381;28;20481;-81
2023/12/22 07:02:12;;;;;;;1.67;1.30;;;7.80;98.20;;;;;;4974889;28;20515;-81
2023/12/22 07:04:39;;;;;;;1.60;1.20;;;7.80;98.20;;;;;;4990274;28;20536;-82
2023/12/22 07:07:06;;;;;;;1.67;1.30;;;7.80;98.20;;;;;;4971105;28;20493;-82
2023/12/22 07:09:33;;;;;;;1.63;1.20;;;7.80;98.20;;;;;;4982810;28;20587;-82
2023/12/22 07:12:01;;;;;;;1.60;1.20;;;7.80;98.20;;;;;;4981059;28;20927;-82
2023/12/22 07:14:28;;;;;;;1.70;1.30;;;7.80;98.20;;;;;;4991510;28;20472;-82
2023/12/22 07:16:58;;;;;;;1.60;1.20;;;7.70;98.20;;;;;;4977520;28;20485;-82
2023/12/22 07:19:25;;;;;;;1.60;1.30;;;7.80;98.20;;;;;;4992294;28;20548;-82
2023/12/22 07:21:52;;;;;;;1.70;1.30;;;7.70;98.20;;;;;;4983414;28;20485;-81
2023/12/22 07:24:19;;;;;;;1.67;1.23;;;7.70;98.20;;;;;;4990639;28;20876;-82
2023/12/22 07:26:46;;;;;;;1.60;1.20;;;7.70;98.20;;;;;;4982378;28;20484;-82
2023/12/22 07:29:12;;;;;;;1.60;1.20;;;7.60;98.20;;;;;;4993125;28;20498;-79
2023/12/22 07:31:39;;;;;;;1.60;1.20;;;7.60;98.20;;;;;;4975715;28;20494;-80
2023/12/22 07:34:07;;;;;;;1.60;1.13;;;7.50;98.20;;;;;;4986494;28;20473;-80
2023/12/22 07:36:34;;;;;;;1.60;1.20;;;7.50;98.20;;;;;;4979036;28;20476;-81
2023/12/22 07:39:01;;;;;;;1.67;1.30;;;7.40;98.20;;;;;;4993903;28;20523;-82
2023/12/22 07:41:28;;;;;;;1.60;1.20;;;7.40;98.20;;;;;;4981966;28;20776;-82
2023/12/22 07:43:55;;;;;;;1.60;1.20;;;7.30;98.20;;;;;;4990804;28;21042;-80
2023/12/22 07:46:23;;;;;;;1.67;1.20;;;7.30;98.20;;;;;;4982018;28;20632;-81
2023/12/22 07:48:50;;;;;;;1.60;1.20;;;7.30;98.20;;;;;;4989465;28;20520;-80
2023/12/22 07:51:18;;;;;;;1.60;1.20;;;7.30;98.20;;;;;;4981764;28;20487;-82
2023/12/22 07:53:49;;;;;;;1.60;1.20;;;7.20;98.20;;;;;;4994737;28;20932;-82
2023/12/22 07:56:25;;;;;;;1.60;1.20;;;7.20;98.20;;;;;;4985763;28;20877;-82
2023/12/22 07:58:55;;;;;;;1.63;1.30;;;7.20;98.20;;;;;;4994709;28;20522;-82
2023/12/22 08:01:30;;;;;;;1.60;1.20;;;7.20;98.20;;;;;;4990397;28;20476;-82
2023/12/22 08:03:57;;;;;;;1.63;1.20;;;7.30;98.20;;;;;;4996648;28;20528;-81
2023/12/22 08:06:28;;;;;;;1.60;1.20;;;7.30;98.20;;;;;;4984815;28;20854;-81
2023/12/22 08:08:55;;;;;;;1.60;1.20;;;7.40;98.20;;;;;;4988740;28;20492;-81
2023/12/22 08:11:25;;;;;;;1.67;1.30;;;7.40;98.20;;;;;;4989675;28;20475;-81
2023/12/22 08:13:55;;;;;;;1.60;1.20;;;7.40;98.20;;;;;;4998716;28;20500;-81
2023/12/22 08:16:22;;;;;;;1.60;1.20;;;7.50;98.20;;;;;;4987951;28;20480;-81
2023/12/22 08:18:52;;;;;;;1.60;1.30;;;7.50;98.20;;;;;;4988537;28;20916;-81
2023/12/22 08:21:19;;;;;;;1.70;1.40;;;7.50;98.20;;;;;;4987620;28;20480;-81
2023/12/22 08:23:47;;;;;;;1.60;1.20;;;7.60;98.20;;;;;;4988633;28;20525;-80
2023/12/22 08:26:17;;;;;;;1.63;1.23;;;7.60;98.20;;;;;;4981147;28;20484;-81
2023/12/22 08:28:44;;;;;;;1.60;1.10;;;7.70;98.20;;;;;;4991482;28;20488;-81
2023/12/22 08:31:12;;;;;;;1.60;1.20;;;7.70;98.20;;;;;;4981039;28;20493;-81
2023/12/22 08:33:40;;;;;;;2.37;2.17;;;7.70;98.20;;;;;;4992366;28;20552;-81
2023/12/22 08:36:07;;;;;;;1.67;1.20;;;7.70;98.20;;;;;;4978325;28;21178;-81
2023/12/22 08:38:34;;;;;;;1.67;1.33;;;7.80;98.20;;;;;;4990954;28;20489;-81
2023/12/22 08:41:02;;;;;;;1.60;1.20;;;7.80;98.20;;;;;;4978763;28;20497;-81
2023/12/22 08:43:29;;;;;;;1.60;1.20;;;7.80;98.20;;;;;;4993916;28;20837;-81
2023/12/22 08:45:56;;;;;;;1.60;1.20;;;7.90;98.20;;;;;;4976317;28;20964;-82
2023/12/22 08:48:23;;;;;;;1.70;1.20;;;7.90;98.20;;;;;;4988252;28;20485;-81
2023/12/22 08:50:49;;;;;;;1.60;1.20;;;7.90;98.20;;;;;;4976325;28;20601;-82
2023/12/22 08:53:16;;;;;;;1.63;1.30;;;8.00;98.20;;;;;;4987518;28;20457;-81
2023/12/22 08:55:43;;;;;;;1.60;1.20;;;8.00;98.20;;;;;;4988555;28;21670;-81
2023/12/22 08:58:11;;;;;;;1.60;1.20;;;8.00;98.20;;;;;;4975014;28;20489;-81
2023/12/22 09:00:38;;;;;;;1.70;1.40;;;8.10;98.20;;;;;;4984931;28;20461;-81
2023/12/22 09:03:05;;;;;;;1.63;1.30;;;8.10;98.20;;;;;;4982204;28;20562;-82
2023/12/22 09:05:32;;;;;;;1.67;1.27;;;8.20;98.20;;;;;;4987525;28;20477;-81
2023/12/22 09:08:02;;;;;;;1.70;1.30;;;8.20;98.20;;;;;;4981874;28;20485;-82
2023/12/22 09:10:29;;;;;;;1.70;1.30;;;8.20;98.20;;;;;;4985574;28;20484;-81
2023/12/22 09:12:56;;;;;;;1.60;1.17;;;8.30;98.20;;;;;;4973652;28;20567;-81
2023/12/22 09:15:25;;;;;;;1.60;1.20;;;8.30;98.20;;;;;;4985269;28;20465;-81
2023/12/22 09:17:55;;;;;;;1.67;1.30;;;8.30;98.20;;;;;;4978291;28;21081;-81
2023/12/22 09:20:25;;;;;;;9.37;4.60;;;8.40;98.20;;;;;;4990119;28;20493;-81
2023/12/22 09:22:52;;;;;;;1.70;1.20;;;8.40;98.20;;;;;;4982533;28;20493;-81
2023/12/22 09:25:19;;;;;;;1.67;1.20;;;8.40;98.20;;;;;;4981751;28;20588;-82
2023/12/22 09:30:37;;;;;;;1.63;1.20;;;8.50;98.20;;;;;;4985188;28;20489;-82
2023/12/22 09:33:05;;;;;;;1.60;1.20;;;8.50;98.20;;;;;;4977098;28;20488;-83
2023/12/22 09:35:35;;;;;;;1.70;1.30;;;8.50;98.20;;;;;;4989907;28;20850;-82
2023/12/22 09:38:02;;;;;;;1.60;1.30;;;8.50;98.20;;;;;;4976592;28;20480;-83
2023/12/22 09:40:29;;;;;;;1.60;1.17;;;8.60;98.20;;;;;;4983099;28;20457;-81
2023/12/22 09:42:56;;;;;;;1.60;1.17;;;8.60;98.20;;;;;;4971805;28;20568;-82
2023/12/22 09:45:24;;;;;;;1.60;1.20;;;8.60;98.20;;;;;;4987925;28;20508;-80
2023/12/22 09:47:53;;;;;;;1.60;1.20;;;8.60;98.20;;;;;;4973281;28;20923;-83
2023/12/22 09:50:21;;;;;;;1.60;1.10;;;8.70;98.20;;;;;;4987017;28;20490;-82
2023/12/22 09:52:48;;;;;;;1.70;1.20;;;8.70;98.20;;;;;;4973659;28;20894;-82
2023/12/22 09:55:17;;;;;;;2.53;2.33;;;8.70;98.20;;;;;;4984852;28;20506;-82
2023/12/22 09:57:46;;;;;;;1.70;1.30;;;8.80;98.20;;;;;;4971897;28;20664;-83
2023/12/22 10:00:15;;;;;;;1.60;1.20;;;8.80;98.20;;;;;;4982764;28;20532;-83
2023/12/22 10:02:42;;;;;;;1.60;1.20;;;8.90;98.20;;;;;;4974940;28;20508;-82
2023/12/22 10:05:12;;;;;;;1.60;1.17;;;8.90;98.20;;;;;;4983756;28;20831;-82
2023/12/22 10:07:43;;;;;;;1.60;1.17;;;8.90;98.20;;;;;;4973700;28;20588;-83
2023/12/22 10:10:29;;;;;;;1.60;1.10;;;8.90;98.20;;;;;;4987206;28;20499;-82
2023/12/22 10:12:56;;;;;;;1.60;1.20;;;8.90;98.20;;;;;;4975323;28;21127;-83
2023/12/22 10:19:28;;;;;;;1.60;1.20;;;9.00;98.20;;;;;;4958279;28;20755;-82
2023/12/22 10:22:31;;;;;;;1.60;1.20;;;9.00;98.20;;;;;;4976707;28;20564;-82
2023/12/22 10:25:22;;;;;;;1.60;1.20;;;9.00;98.20;;;;;;4987679;28;21023;-82
2023/12/22 10:48:41;;;;;;;1.60;1.10;;;9.00;98.20;;;;;;4834160;29;20640;-83
2023/12/22 11:19:28;;;;;;;1.67;1.10;;;9.20;98.20;;;;;;4933189;28;20585;-82
2023/12/22 11:22:08;;;;;;;1.60;1.10;;;9.20;98.20;;;;;;4943034;28;20561;-82
2023/12/22 11:24:45;;;;;;;1.60;1.20;;;9.30;98.20;;;;;;4955704;28;20761;-83
2023/12/22 11:27:20;;;;;;;1.60;1.10;;;9.30;98.20;;;;;;4941141;28;20490;-83
2023/12/22 11:29:49;;;;;;;1.60;1.20;;;9.30;98.20;;;;;;4957076;28;20525;-82
2023/12/22 11:32:38;;;;;;;1.60;1.17;;;9.40;98.20;;;;;;4950254;28;20485;-84
2023/12/22 11:35:16;;;;;;;1.60;1.13;;;9.40;98.20;;;;;;4956404;28;20471;-83
2023/12/22 11:37:45;;;;;;;1.60;1.17;;;9.40;98.20;;;;;;4946974;28;21219;-83
2023/12/22 11:40:15;;;;;;;1.60;1.20;;;9.40;98.20;;;;;;4982305;23;20631;-83
2023/12/22 11:46:30;;;;;;;1.63;1.20;;;9.50;98.20;;;;;;4916114;29;21348;-82
2023/12/22 12:06:36;;;;;;;1.70;1.20;;;9.70;98.20;;;;;;4881092;29;20628;-84
2023/12/22 12:13:11;;;;;;;;;;;;;;;;;;;;;
2023/12/22 12:18:59;;;;;;;1.60;1.10;;;9.90;98.20;;;;;;4899413;29;21234;-82
2023/12/22 12:22:44;;;;;;;;;;;;;;;;;;;;;
2023/12/22 12:29:08;;;;;;;1.60;1.20;;;9.90;98.20;;;;;;4815387;29;20482;-82
2023/12/22 12:35:32;;;;;;;1.67;1.20;;;9.90;98.20;;;;;;4836284;29;21055;-83
2023/12/22 12:38:08;;;;;;;1.70;1.20;;;10.00;98.20;;;;;;4833926;29;20497;-83
2023/12/22 12:48:27;;;;;;;1.60;1.10;;;10.10;98.20;;;;;;4779583;29;21010;-82
2023/12/22 12:58:28;;;;;;;1.60;1.20;;;10.20;98.20;;;;;;4817403;29;20545;-85
2023/12/22 13:08:18;;;;;;;1.63;1.10;;;10.10;98.20;;;;;;4814351;29;20486;-84
2023/12/22 13:10:47;;;;;;;1.60;1.10;;;10.10;98.20;;;;;;4885237;28;20498;-82
2023/12/22 13:13:15;;;;;;;1.60;1.10;;;10.10;98.20;;;;;;4937227;28;20489;-81
2023/12/22 13:15:44;;;;;;;1.60;1.10;;;10.10;98.20;;;;;;4948534;28;20837;-83
2023/12/22 13:18:11;;;;;;;1.60;1.10;;;10.10;98.20;;;;;;4937205;28;20492;-83
2023/12/22 13:20:42;;;;;;;1.60;1.10;;;10.10;98.20;;;;;;4952998;28;20478;-83
2023/12/22 13:23:09;;;;;;;1.60;1.10;;;10.10;98.20;;;;;;4934495;28;21108;-82
2023/12/22 13:25:39;;;;;;;1.60;1.10;;;10.00;98.20;;;;;;4952379;28;20490;-82
2023/12/22 13:28:06;;;;;;;2.07;1.67;;;10.00;98.20;;;;;;4943091;28;20498;-81
2023/12/22 13:30:34;;;;;;;1.60;1.13;;;10.00;98.20;;;;;;4953069;28;20497;-81
2023/12/22 13:33:02;;;;;;;1.60;1.10;;;10.00;98.20;;;;;;4937014;28;20501;-81
2023/12/22 13:35:30;;;;;;;1.60;1.10;;;10.00;98.20;;;;;;4949219;28;20534;-80
2023/12/22 13:37:57;;;;;;;1.60;1.10;;;10.00;98.20;;;;;;4932866;28;20489;-79
2023/12/22 13:40:24;;;;;;;1.63;1.10;;;10.10;98.20;;;;;;4953696;28;20473;-80
2023/12/22 13:42:55;;;;;;;1.60;1.10;;;10.10;98.20;;;;;;4936997;28;21045;-80
2023/12/22 13:45:22;;;;;;;1.60;1.10;;;10.10;98.20;;;;;;4947675;28;20459;-79
2023/12/22 13:47:49;;;;;;;1.60;1.10;;;10.10;98.20;;;;;;4938169;28;20595;-84
2023/12/22 13:50:23;;;;;;;1.60;1.20;;;10.00;98.20;;;;;;4946894;28;20483;-84
2023/12/22 13:52:50;;;;;;;1.60;1.07;;;10.10;98.20;;;;;;4936314;28;20887;-82
2023/12/22 13:55:19;;;;;;;1.60;1.10;;;10.10;98.20;;;;;;4949893;28;20495;-83
2023/12/22 13:57:49;;;;;;;1.60;1.10;;;10.10;98.20;;;;;;4939349;28;20558;-81
2023/12/22 14:00:29;;;;;;;1.60;1.13;;;10.10;98.20;;;;;;4952763;28;20538;-80
2023/12/22 14:02:56;;;;;;;1.60;1.10;;;10.10;98.20;;;;;;4939173;28;20485;-83
2023/12/22 14:05:25;;;;;;;1.60;1.20;;;10.00;98.20;;;;;;4953693;28;20946;-85
2023/12/22 14:07:52;;;;;;;1.60;1.10;;;10.10;98.20;;;;;;4940444;28;20512;-84
2023/12/22 14:10:25;;;;;;;1.60;1.10;;;10.00;98.20;;;;;;4955966;28;20509;-85
2023/12/22 14:12:51;;;;;;;1.70;1.20;;;10.00;98.20;;;;;;4939246;28;20530;-83
2023/12/22 14:15:19;;;;;;;1.60;1.10;;;10.00;98.20;;;;;;4950435;28;20477;-82
2023/12/22 14:17:52;;;;;;;1.70;1.20;;;9.90;98.20;;;;;;4945458;28;20510;-83
2023/12/22 14:20:20;;;;;;;1.70;1.20;;;9.90;98.20;;;;;;4949389;28;20478;-84
2023/12/22 14:22:48;;;;;;;1.60;1.10;;;9.90;98.20;;;;;;4939321;28;20486;-84
2023/12/22 14:25:15;;;;;;;1.60;1.10;;;9.90;98.20;;;;;;4950153;28;20545;-82
2023/12/22 14:27:42;;;;;;;1.60;1.10;;;9.90;98.20;;;;;;4937461;28;20542;-82
2023/12/22 14:30:10;;;;;;;1.60;1.20;;;9.80;98.20;;;;;;4945068;28;20650;-82
2023/12/22 14:36:26;;;;;;;1.60;1.10;;;9.80;98.20;;;;;;4891897;29;21636;-87
2023/12/22 14:50:11;;;;;;;1.60;1.20;;;9.70;98.20;;;;;;5444750;23;20549;-84
2023/12/22 15:00:03;;;;;;;1.60;1.13;;;9.70;98.20;;;;;;5232685;23;20504;-83
2023/12/22 15:06:28;;;;;;;1.60;1.10;;;9.70;98.20;;;;;;4935879;28;21002;-84
2023/12/22 15:09:54;;;;;;;;;;;;;;;;;;;;;
2023/12/22 15:54:34;;;;;;;1.60;1.20;;;9.50;98.20;;;;;;4970232;23;20535;-83
2023/12/22 16:00:54;;;;;;;1.70;1.30;;;9.50;98.20;;;;;;4968240;28;20490;-84
2023/12/22 16:04:05;;;;;;;1.60;1.10;;;9.50;98.20;;;;;;4936234;28;20470;-83
2023/12/22 16:06:54;;;;;;;1.60;1.13;;;9.50;98.20;;;;;;4949742;28;20478;-85
2023/12/22 16:09:43;;;;;;;1.60;1.10;;;9.50;98.20;;;;;;4970708;28;20558;-85
2023/12/22 16:12:16;;;;;;;1.60;1.13;;;9.50;98.20;;;;;;4955453;28;20482;-83
2023/12/22 16:15:15;;;;;;;1.87;1.50;;;9.50;98.20;;;;;;4970610;28;20580;-84
2023/12/22 16:26:40;;;;;;;1.60;1.20;;;9.50;98.20;;;;;;4974359;28;20485;-87
2023/12/22 16:32:03;;;;;;;1.60;1.10;;;9.50;98.20;;;;;;4963231;28;20483;-83
2023/12/22 16:41:17;;;;;;;1.60;1.10;;;9.50;98.20;;;;;;4867042;28;20545;-82
2023/12/22 16:43:53;;;;;;;1.60;1.10;;;9.60;98.20;;;;;;4958567;28;20516;-81